Raisin, Texas
Current Conditions -  °F | °C
As of 2:51 AM on Friday 24 Oct 2014 (Local Time) from KVCT Reporting Station
Clear Clear  
Wind Chill: 60°   Ceiling: Unl
Heat Index: 60°   Visibility: 10mi
Dew Point: 55°   Wind: 5mph
Humidity: 83%   Direction: 50°NE
Pressure: 30.11"   Gusts: NA
Location:  28.877°N, 97.189°W
Report Text: KVCT 240751Z AUTO 05004KT 10SM CLR 16/13 A3011 RMK AO2 SLP193 T01560128
Loading
Personal Weather Stations






























Interactive Weather Map
Tropical Storm Tracking
New forecast layout! Learn more

10-Day Weather Forecast

Advertisements
Track Severe Weather on mobile